Time,TemperatureF,DewpointF,PressureIn,WindDirection,WindDirectionDegrees,WindSpeedMPH,WindSpeedGustMPH,Humidity,HourlyPrecipIn,Conditions,Clouds,dailyrainin,SoftwareType,DateUTC
2013-01-14 00:04:00,67.0,63.0,30.05,ESE,121,1.0,3.0,88,0.00,,,0.00,,2013-01-14 05:04:00,
2013-01-14 00:12:00,67.0,63.0,30.05,ESE,121,1.0,3.0,88,0.00,,,0.00,,2013-01-14 05:12:00,
2013-01-14 00:22:00,67.0,63.0,30.04,ESE,119,1.0,2.0,88,0.00,,,0.00,,2013-01-14 05:22:00,
2013-01-14 00:33:00,67.0,63.0,30.04,SE,146,0.0,1.0,88,0.00,,,0.00,,2013-01-14 05:33:00,
2013-01-14 00:43:00,67.0,63.0,30.04,SE,146,0.0,1.0,88,0.00,,,0.00,,2013-01-14 05:43:00,
2013-01-14 00:53:00,67.0,63.0,30.05,SE,126,0.0,0.0,87,0.00,,,0.00,,2013-01-14 05:53:00,
2013-01-14 01:03:00,67.0,63.0,30.05,ESE,109,0.0,0.0,86,0.00,,,0.00,,2013-01-14 06:03:00,
2013-01-14 01:12:00,67.0,63.0,30.05,ESE,109,0.0,0.0,86,0.00,,,0.00,,2013-01-14 06:12:00,
2013-01-14 01:22:00,66.0,62.0,30.05,SE,131,0.0,0.0,86,0.00,,,0.00,,2013-01-14 06:22:00,
2013-01-14 01:33:00,66.0,62.0,30.05,ESE,117,1.0,3.0,86,0.00,,,0.00,,2013-01-14 06:33:00,
2013-01-14 01:43:00,66.0,62.0,30.05,ESE,117,1.0,3.0,86,0.00,,,0.00,,2013-01-14 06:43:00,
2013-01-14 01:53:00,66.0,62.0,30.05,SSE,151,1.0,2.0,87,0.00,,,0.00,,2013-01-14 06:53:00,
2013-01-14 02:02:00,66.0,62.0,30.05,SE,124,1.0,3.0,87,0.00,,,0.00,,2013-01-14 07:02:00,
2013-01-14 02:12:00,66.0,62.0,30.05,SE,124,1.0,3.0,87,0.00,,,0.00,,2013-01-14 07:12:00,
2013-01-14 02:23:00,65.0,61.0,30.06,ESE,105,0.0,1.0,87,0.00,,,0.00,,2013-01-14 07:23:00,
2013-01-14 02:33:00,65.0,61.0,30.06,ESE,109,0.0,0.0,87,0.00,,,0.00,,2013-01-14 07:33:00,
2013-01-14 02:42:00,65.0,61.0,30.06,ESE,109,0.0,0.0,87,0.00,,,0.00,,2013-01-14 07:42:00,
2013-01-14 02:53:00,65.0,61.0,30.06,ESE,109,0.0,0.0,87,0.00,,,0.00,,2013-01-14 07:53:00,
2013-01-14 03:02:00,64.0,60.0,30.06,ESE,109,0.0,0.0,87,0.00,,,0.00,,2013-01-14 08:02:00,
2013-01-14 03:12:00,64.0,60.0,30.06,ESE,109,0.0,0.0,87,0.00,,,0.00,,2013-01-14 08:12:00,
2013-01-14 03:22:00,64.0,60.0,30.06,ESE,109,0.0,0.0,87,0.00,,,0.00,,2013-01-14 08:22:00,
2013-01-14 03:33:00,63.0,59.0,30.06,ESE,109,0.0,0.0,87,0.00,,,0.00,,2013-01-14 08:33:00,
2013-01-14 03:42:00,63.0,59.0,30.06,ESE,109,0.0,0.0,87,0.00,,,0.00,,2013-01-14 08:42:00,
2013-01-14 03:53:00,63.0,59.0,30.06,ESE,109,0.0,0.0,87,0.00,,,0.00,,2013-01-14 08:53:00,
2013-01-14 04:03:00,62.0,58.0,30.06,ESE,109,0.0,0.0,88,0.00,,,0.00,,2013-01-14 09:03:00,
2013-01-14 04:12:00,62.0,58.0,30.06,ESE,109,0.0,0.0,88,0.00,,,0.00,,2013-01-14 09:12:00,
2013-01-14 04:23:00,62.0,58.0,30.05,ESE,109,0.0,0.0,88,0.00,,,0.00,,2013-01-14 09:23:00,
2013-01-14 04:33:00,61.0,57.0,30.06,ESE,109,0.0,0.0,88,0.00,,,0.00,,2013-01-14 09:33:00,
2013-01-14 04:43:00,61.0,57.0,30.06,ESE,109,0.0,0.0,88,0.00,,,0.00,,2013-01-14 09:43:00,
2013-01-14 04:53:00,61.0,57.0,30.05,ESE,109,0.0,0.0,88,0.00,,,0.00,,2013-01-14 09:53:00,
2013-01-14 05:02:00,61.0,58.0,30.05,ESE,109,0.0,0.0,89,0.00,,,0.00,,2013-01-14 10:02:00,
2013-01-14 05:12:00,61.0,58.0,30.05,ESE,109,0.0,0.0,89,0.00,,,0.00,,2013-01-14 10:12:00,
2013-01-14 05:23:00,61.0,58.0,30.06,ESE,109,0.0,0.0,89,0.00,,,0.00,,2013-01-14 10:23:00,
2013-01-14 05:32:00,61.0,58.0,30.05,ESE,106,0.0,0.0,89,0.00,,,0.00,,2013-01-14 10:32:00,
2013-01-14 05:42:00,61.0,58.0,30.05,ESE,106,0.0,0.0,89,0.00,,,0.00,,2013-01-14 10:42:00,
2013-01-14 05:53:00,61.0,58.0,30.05,ESE,106,0.0,0.0,90,0.00,,,0.00,,2013-01-14 10:53:00,
2013-01-14 06:02:00,61.0,58.0,30.05,ESE,106,0.0,0.0,90,0.00,,,0.00,,2013-01-14 11:02:00,
2013-01-14 06:12:00,61.0,58.0,30.05,ESE,106,0.0,0.0,90,0.00,,,0.00,,2013-01-14 11:12:00,
2013-01-14 06:22:00,60.0,57.0,30.05,ESE,106,0.0,0.0,91,0.00,,,0.00,,2013-01-14 11:22:00,
2013-01-14 06:33:00,60.0,57.0,30.04,ESE,122,0.0,1.0,91,0.00,,,0.00,,2013-01-14 11:33:00,
2013-01-14 06:43:00,60.0,57.0,30.04,ESE,122,0.0,1.0,91,0.00,,,0.00,,2013-01-14 11:43:00,
2013-01-14 06:53:00,61.0,59.0,30.05,SE,144,0.0,0.0,92,0.00,,,0.00,,2013-01-14 11:53:00,
2013-01-14 07:03:00,61.0,59.0,30.06,ESE,104,0.0,0.0,92,0.00,,,0.00,,2013-01-14 12:03:00,
2013-01-14 07:12:00,61.0,59.0,30.06,ESE,104,0.0,0.0,92,0.00,,,0.00,,2013-01-14 12:12:00,
2013-01-14 07:23:00,61.0,59.0,30.06,ESE,103,0.0,0.0,92,0.00,,,0.00,,2013-01-14 12:23:00,
2013-01-14 07:33:00,60.0,58.0,30.06,NE,56,0.0,0.0,92,0.00,,,0.00,,2013-01-14 12:33:00,
2013-01-14 07:43:00,60.0,58.0,30.06,NE,56,0.0,0.0,92,0.00,,,0.00,,2013-01-14 12:43:00,
2013-01-14 07:53:00,60.0,58.0,30.07,East,96,2.0,3.0,92,0.00,,,0.00,,2013-01-14 12:53:00,
2013-01-14 08:03:00,61.0,59.0,30.07,ESE,105,2.0,4.0,92,0.00,,,0.00,,2013-01-14 13:03:00,
2013-01-14 08:13:00,61.0,59.0,30.07,ESE,105,2.0,4.0,92,0.00,,,0.00,,2013-01-14 13:13:00,
2013-01-14 08:23:00,61.0,59.0,30.07,East,94,1.0,2.0,92,0.00,,,0.00,,2013-01-14 13:23:00,
2013-01-14 08:33:00,61.0,59.0,30.08,East,80,0.0,1.0,93,0.00,,,0.00,,2013-01-14 13:33:00,
2013-01-14 08:43:00,61.0,59.0,30.08,East,80,0.0,1.0,93,0.00,,,0.00,,2013-01-14 13:43:00,
2013-01-14 08:53:00,63.0,61.0,30.09,East,95,1.0,3.0,94,0.00,,,0.00,,2013-01-14 13:53:00,
2013-01-14 09:03:00,64.0,62.0,30.09,ESE,107,0.0,1.0,94,0.00,,,0.00,,2013-01-14 14:03:00,
2013-01-14 09:13:00,64.0,62.0,30.09,ESE,107,0.0,1.0,94,0.00,,,0.00,,2013-01-14 14:13:00,
2013-01-14 09:23:00,66.0,64.0,30.09,East,92,1.0,5.0,93,0.00,,,0.00,,2013-01-14 14:23:00,
2013-01-14 09:33:00,67.0,65.0,30.10,East,90,0.0,2.0,92,0.00,,,0.00,,2013-01-14 14:33:00,
2013-01-14 09:43:00,67.0,65.0,30.10,East,90,0.0,2.0,92,0.00,,,0.00,,2013-01-14 14:43:00,
2013-01-14 09:53:00,70.0,66.0,30.10,East,92,2.0,3.0,87,0.00,,,0.00,,2013-01-14 14:53:00,
2013-01-14 10:03:00,72.0,65.0,30.11,East,82,0.0,0.0,78,0.00,,,0.00,,2013-01-14 15:03:00,
2013-01-14 10:12:00,72.0,65.0,30.11,East,82,0.0,0.0,78,0.00,,,0.00,,2013-01-14 15:12:00,
2013-01-14 10:23:00,73.0,63.0,30.10,South,190,2.0,7.0,72,0.00,,,0.00,,2013-01-14 15:23:00,
2013-01-14 10:33:00,75.0,65.0,30.09,ESE,119,1.0,5.0,71,0.00,,,0.00,,2013-01-14 15:33:00,
2013-01-14 10:43:00,75.0,65.0,30.09,ESE,119,1.0,5.0,71,0.00,,,0.00,,2013-01-14 15:43:00,
2013-01-14 10:53:00,76.0,63.0,30.10,South,170,2.0,6.0,65,0.00,,,0.00,,2013-01-14 15:53:00,
2013-01-14 11:03:00,77.0,62.0,30.09,SSE,155,2.0,5.0,59,0.00,,,0.00,,2013-01-14 16:03:00,
2013-01-14 11:12:00,77.0,62.0,30.09,SSE,155,2.0,5.0,59,0.00,,,0.00,,2013-01-14 16:12:00,
2013-01-14 11:23:00,77.0,62.0,30.09,SE,133,1.0,3.0,60,0.00,,,0.00,,2013-01-14 16:23:00,
2013-01-14 11:33:00,77.0,61.0,30.08,East,99,0.0,1.0,58,0.00,,,0.00,,2013-01-14 16:33:00,
2013-01-14 11:43:00,77.0,61.0,30.08,East,99,0.0,1.0,58,0.00,,,0.00,,2013-01-14 16:43:00,
2013-01-14 11:53:00,79.0,61.0,30.08,SE,146,4.0,7.0,54,0.00,,,0.00,,2013-01-14 16:53:00,
2013-01-14 12:03:00,79.0,61.0,30.07,ESE,105,1.0,5.0,54,0.00,,,0.00,,2013-01-14 17:03:00,
2013-01-14 12:12:00,79.0,61.0,30.07,ESE,105,1.0,5.0,54,0.00,,,0.00,,2013-01-14 17:12:00,
2013-01-14 12:23:00,78.0,59.0,30.07,SE,142,4.0,7.0,53,0.00,,,0.00,,2013-01-14 17:23:00,
2013-01-14 12:33:00,80.0,60.0,30.06,South,169,3.0,7.0,50,0.00,,,0.00,,2013-01-14 17:33:00,
2013-01-14 12:43:00,80.0,60.0,30.06,South,169,3.0,7.0,50,0.00,,,0.00,,2013-01-14 17:43:00,
2013-01-14 12:54:00,79.0,59.0,30.06,ESE,122,1.0,4.0,51,0.00,,,0.00,,2013-01-14 17:54:00,
2013-01-14 13:03:00,80.0,59.0,30.05,ESE,110,4.0,8.0,49,0.00,,,0.00,,2013-01-14 18:03:00,
2013-01-14 13:13:00,80.0,59.0,30.05,ESE,110,4.0,8.0,49,0.00,,,0.00,,2013-01-14 18:13:00,
2013-01-14 13:23:00,81.0,59.0,30.05,SSW,202,4.0,8.0,47,0.00,,,0.00,,2013-01-14 18:23:00,
2013-01-14 13:33:00,81.0,58.0,30.05,SE,134,3.0,7.0,46,0.00,,,0.00,,2013-01-14 18:33:00,
2013-01-14 13:43:00,81.0,58.0,30.05,SE,134,3.0,7.0,46,0.00,,,0.00,,2013-01-14 18:43:00,
2013-01-14 13:53:00,80.0,58.0,30.04,South,179,1.0,5.0,47,0.00,,,0.00,,2013-01-14 18:53:00,
2013-01-14 14:03:00,81.0,56.0,30.04,South,179,3.0,7.0,43,0.00,,,0.00,,2013-01-14 19:03:00,
2013-01-14 14:13:00,81.0,56.0,30.04,South,179,3.0,7.0,43,0.00,,,0.00,,2013-01-14 19:13:00,
2013-01-14 14:22:00,81.0,57.0,30.03,ENE,67,1.0,3.0,44,0.00,,,0.00,,2013-01-14 19:22:00,
2013-01-14 14:33:00,81.0,57.0,30.03,SSE,151,0.0,0.0,44,0.00,,,0.00,,2013-01-14 19:33:00,
2013-01-14 14:43:00,81.0,57.0,30.03,SSE,151,0.0,0.0,44,0.00,,,0.00,,2013-01-14 19:43:00,
2013-01-14 14:53:00,81.0,56.0,30.03,South,182,3.0,6.0,42,0.00,,,0.00,,2013-01-14 19:53:00,
2013-01-14 15:03:00,81.0,57.0,30.03,WSW,252,0.0,0.0,44,0.00,,,0.00,,2013-01-14 20:03:00,
2013-01-14 15:13:00,81.0,57.0,30.03,WSW,252,0.0,0.0,44,0.00,,,0.00,,2013-01-14 20:13:00,
2013-01-14 15:23:00,82.0,57.0,30.03,South,174,3.0,9.0,43,0.00,,,0.00,,2013-01-14 20:23:00,
2013-01-14 15:33:00,81.0,58.0,30.03,SSW,207,2.0,5.0,45,0.00,,,0.00,,2013-01-14 20:33:00,
2013-01-14 15:43:00,81.0,58.0,30.03,SSW,207,2.0,5.0,45,0.00,,,0.00,,2013-01-14 20:43:00,
2013-01-14 15:53:00,82.0,58.0,30.03,ESE,109,0.0,2.0,44,0.00,,,0.00,,2013-01-14 20:53:00,
2013-01-14 16:03:00,81.0,57.0,30.03,SE,131,0.0,0.0,44,0.00,,,0.00,,2013-01-14 21:03:00,
2013-01-14 16:13:00,81.0,57.0,30.03,SE,131,0.0,0.0,44,0.00,,,0.00,,2013-01-14 21:13:00,
2013-01-14 16:23:00,81.0,58.0,30.03,East,92,0.0,1.0,46,0.00,,,0.00,,2013-01-14 21:23:00,
2013-01-14 16:33:00,80.0,57.0,30.04,SSE,159,0.0,0.0,46,0.00,,,0.00,,2013-01-14 21:33:00,
2013-01-14 16:43:00,80.0,57.0,30.04,SSE,159,0.0,0.0,46,0.00,,,0.00,,2013-01-14 21:43:00,
2013-01-14 16:53:00,79.0,59.0,30.04,ENE,58,0.0,0.0,51,0.00,,,0.00,,2013-01-14 21:53:00,
2013-01-14 17:03:00,80.0,60.0,30.04,WNW,288,5.0,9.0,51,0.00,,,0.00,,2013-01-14 22:03:00,
2013-01-14 17:12:00,80.0,60.0,30.04,WNW,288,5.0,9.0,51,0.00,,,0.00,,2013-01-14 22:12:00,
2013-01-14 17:23:00,79.0,60.0,30.05,WSW,246,1.0,4.0,53,0.00,,,0.00,,2013-01-14 22:23:00,
2013-01-14 17:33:00,77.0,59.0,30.05,West,267,1.0,4.0,54,0.00,,,0.00,,2013-01-14 22:33:00,
2013-01-14 17:43:00,77.0,59.0,30.05,West,267,1.0,4.0,54,0.00,,,0.00,,2013-01-14 22:43:00,
2013-01-14 17:53:00,76.0,60.0,30.06,WSW,240,0.0,0.0,58,0.00,,,0.00,,2013-01-14 22:53:00,
2013-01-14 18:03:00,75.0,59.0,30.06,SW,230,0.0,0.0,58,0.00,,,0.00,,2013-01-14 23:03:00,
2013-01-14 18:12:00,75.0,59.0,30.06,SW,230,0.0,0.0,58,0.00,,,0.00,,2013-01-14 23:12:00,
2013-01-14 18:23:00,75.0,59.0,30.06,SSW,208,0.0,0.0,58,0.00,,,0.00,,2013-01-14 23:23:00,
2013-01-14 18:33:00,74.0,59.0,30.06,SSW,213,0.0,0.0,60,0.00,,,0.00,,2013-01-14 23:33:00,
2013-01-14 18:43:00,74.0,59.0,30.06,SSW,213,0.0,0.0,60,0.00,,,0.00,,2013-01-14 23:43:00,
2013-01-14 18:53:00,73.0,59.0,30.07,SSW,195,0.0,0.0,61,0.00,,,0.00,,2013-01-14 23:53:00,
2013-01-14 19:03:00,72.0,58.0,30.07,SSW,195,0.0,0.0,62,0.00,,,0.00,,2013-01-15 00:03:00,
2013-01-14 19:12:00,72.0,58.0,30.07,SSW,195,0.0,0.0,62,0.00,,,0.00,,2013-01-15 00:12:00,
2013-01-14 19:23:00,71.0,58.0,30.07,SSW,195,0.0,0.0,64,0.00,,,0.00,,2013-01-15 00:23:00,
2013-01-14 19:33:00,70.0,58.0,30.07,SSW,195,0.0,0.0,66,0.00,,,0.00,,2013-01-15 00:33:00,
2013-01-14 19:43:00,70.0,58.0,30.07,SSW,195,0.0,0.0,66,0.00,,,0.00,,2013-01-15 00:43:00,
2013-01-14 19:53:00,69.0,58.0,30.07,SSW,195,0.0,0.0,69,0.00,,,0.00,,2013-01-15 00:53:00,
2013-01-14 20:02:00,68.0,59.0,30.06,SSW,195,0.0,0.0,72,0.00,,,0.00,,2013-01-15 01:02:00,
2013-01-14 20:12:00,68.0,59.0,30.06,SSW,195,0.0,0.0,72,0.00,,,0.00,,2013-01-15 01:12:00,
2013-01-14 20:22:00,67.0,59.0,30.06,ESE,111,0.0,0.0,75,0.00,,,0.00,,2013-01-15 01:22:00,
2013-01-14 20:32:00,66.0,59.0,30.06,ESE,104,0.0,0.0,78,0.00,,,0.00,,2013-01-15 01:32:00,
2013-01-14 20:43:00,66.0,59.0,30.06,ESE,104,0.0,0.0,78,0.00,,,0.00,,2013-01-15 01:43:00,
2013-01-14 20:52:00,65.0,58.0,30.06,ESE,104,0.0,0.0,79,0.00,,,0.00,,2013-01-15 01:52:00,
2013-01-14 21:02:00,65.0,59.0,30.06,ESE,104,0.0,0.0,80,0.00,,,0.00,,2013-01-15 02:02:00,
2013-01-14 21:12:00,65.0,59.0,30.06,ESE,104,0.0,0.0,80,0.00,,,0.00,,2013-01-15 02:12:00,
2013-01-14 21:23:00,64.0,58.0,30.06,East,86,0.0,1.0,81,0.00,,,0.00,,2013-01-15 02:23:00,
2013-01-14 21:32:00,64.0,58.0,30.06,East,97,1.0,2.0,81,0.00,,,0.00,,2013-01-15 02:32:00,
2013-01-14 21:42:00,64.0,58.0,30.06,East,97,1.0,2.0,81,0.00,,,0.00,,2013-01-15 02:42:00,
2013-01-14 21:53:00,63.0,57.0,30.07,East,97,0.0,0.0,82,0.00,,,0.00,,2013-01-15 02:53:00,
2013-01-14 22:03:00,62.0,56.0,30.07,East,97,0.0,0.0,82,0.00,,,0.00,,2013-01-15 03:03:00,
2013-01-14 22:12:00,62.0,56.0,30.07,East,97,0.0,0.0,82,0.00,,,0.00,,2013-01-15 03:12:00,
2013-01-14 22:22:00,62.0,57.0,30.07,East,97,0.0,0.0,83,0.00,,,0.00,,2013-01-15 03:22:00,
2013-01-14 22:33:00,62.0,57.0,30.07,East,97,0.0,0.0,83,0.00,,,0.00,,2013-01-15 03:33:00,
2013-01-14 22:42:00,62.0,57.0,30.07,East,97,0.0,0.0,83,0.00,,,0.00,,2013-01-15 03:42:00,
2013-01-14 22:53:00,61.0,56.0,30.07,East,97,0.0,0.0,84,0.00,,,0.00,,2013-01-15 03:53:00,
2013-01-14 23:02:00,61.0,56.0,30.07,East,97,0.0,0.0,85,0.00,,,0.00,,2013-01-15 04:02:00,
2013-01-14 23:12:00,61.0,56.0,30.07,East,97,0.0,0.0,85,0.00,,,0.00,,2013-01-15 04:12:00,
2013-01-14 23:22:00,61.0,56.0,30.07,East,97,0.0,0.0,85,0.00,,,0.00,,2013-01-15 04:22:00,
2013-01-14 23:32:00,60.0,55.0,30.07,East,97,0.0,0.0,85,0.00,,,0.00,,2013-01-15 04:32:00,
2013-01-14 23:42:00,60.0,55.0,30.07,East,97,0.0,0.0,85,0.00,,,0.00,,2013-01-15 04:42:00,
2013-01-14 23:52:00,60.0,55.0,30.07,East,97,0.0,0.0,85,0.00,,,0.00,,2013-01-15 04:52:00,